sensor_id;sensor_type;location;lat;lon;timestamp;P1;durP1;ratioP1;P2;durP2;ratioP2
75684;SDS011;64298;46.050;38.164;2022-12-07T00:01:38;4.80;;;0.60;;
75684;SDS011;64298;46.050;38.164;2022-12-07T00:04:25;1.70;;;1.10;;
75684;SDS011;64298;46.050;38.164;2022-12-07T00:06:51;2.33;;;0.65;;
75684;SDS011;64298;46.050;38.164;2022-12-07T00:09:18;3.47;;;1.33;;
75684;SDS011;64298;46.050;38.164;2022-12-07T00:11:46;2.85;;;1.42;;
75684;SDS011;64298;46.050;38.164;2022-12-07T00:14:14;1.02;;;0.32;;
75684;SDS011;64298;46.050;38.164;2022-12-07T00:16:42;3.42;;;1.02;;
75684;SDS011;64298;46.050;38.164;2022-12-07T00:19:09;1.48;;;0.40;;
75684;SDS011;64298;46.050;38.164;2022-12-07T00:21:56;1.60;;;0.40;;
75684;SDS011;64298;46.050;38.164;2022-12-07T00:24:22;3.50;;;0.98;;
75684;SDS011;64298;46.050;38.164;2022-12-07T00:26:47;2.38;;;0.68;;
75684;SDS011;64298;46.050;38.164;2022-12-07T00:31:43;2.47;;;1.10;;
75684;SDS011;64298;46.050;38.164;2022-12-07T00:34:12;1.85;;;0.75;;
75684;SDS011;64298;46.050;38.164;2022-12-07T00:36:40;1.13;;;0.15;;
75684;SDS011;64298;46.050;38.164;2022-12-07T00:39:06;2.20;;;0.75;;
75684;SDS011;64298;46.050;38.164;2022-12-07T00:41:32;2.67;;;1.67;;
75684;SDS011;64298;46.050;38.164;2022-12-07T00:43:58;3.45;;;1.17;;
75684;SDS011;64298;46.050;38.164;2022-12-07T00:46:24;1.33;;;0.85;;
75684;SDS011;64298;46.050;38.164;2022-12-07T00:48:51;3.88;;;0.70;;
75684;SDS011;64298;46.050;38.164;2022-12-07T00:51:19;2.95;;;1.02;;
75684;SDS011;64298;46.050;38.164;2022-12-07T00:53:47;1.23;;;0.45;;
75684;SDS011;64298;46.050;38.164;2022-12-07T00:56:15;3.28;;;1.15;;
75684;SDS011;64298;46.050;38.164;2022-12-07T00:58:42;0.95;;;0.45;;
75684;SDS011;64298;46.050;38.164;2022-12-07T01:01:09;1.10;;;0.55;;
75684;SDS011;64298;46.050;38.164;2022-12-07T01:03:36;10.25;;;0.75;;
75684;SDS011;64298;46.050;38.164;2022-12-07T01:06:22;2.78;;;0.73;;
75684;SDS011;64298;46.050;38.164;2022-12-07T01:08:50;2.40;;;0.75;;
75684;SDS011;64298;46.050;38.164;2022-12-07T01:11:17;1.85;;;0.80;;
75684;SDS011;64298;46.050;38.164;2022-12-07T01:13:45;2.40;;;0.50;;
75684;SDS011;64298;46.050;38.164;2022-12-07T01:16:13;1.38;;;0.32;;
75684;SDS011;64298;46.050;38.164;2022-12-07T01:18:40;2.42;;;1.17;;
75684;SDS011;64298;46.050;38.164;2022-12-07T01:21:49;2.33;;;0.40;;
75684;SDS011;64298;46.050;38.164;2022-12-07T01:24:36;1.60;;;0.75;;
75684;SDS011;64298;46.050;38.164;2022-12-07T01:27:01;1.92;;;0.68;;
75684;SDS011;64298;46.050;38.164;2022-12-07T01:29:27;1.92;;;0.47;;
75684;SDS011;64298;46.050;38.164;2022-12-07T01:31:53;3.55;;;1.50;;
75684;SDS011;64298;46.050;38.164;2022-12-07T01:34:19;6.43;;;1.30;;
75684;SDS011;64298;46.050;38.164;2022-12-07T01:36:45;1.67;;;0.50;;
75684;SDS011;64298;46.050;38.164;2022-12-07T01:39:11;2.42;;;0.77;;
75684;SDS011;64298;46.050;38.164;2022-12-07T01:41:38;2.95;;;0.40;;
75684;SDS011;64298;46.050;38.164;2022-12-07T01:46:33;1.75;;;0.35;;
75684;SDS011;64298;46.050;38.164;2022-12-07T01:48:59;2.88;;;1.00;;
75684;SDS011;64298;46.050;38.164;2022-12-07T01:51:26;1.35;;;0.40;;
75684;SDS011;64298;46.050;38.164;2022-12-07T01:53:53;1.25;;;0.30;;
75684;SDS011;64298;46.050;38.164;2022-12-07T01:56:20;3.10;;;0.85;;
75684;SDS011;64298;46.050;38.164;2022-12-07T01:58:50;4.57;;;0.90;;
75684;SDS011;64298;46.050;38.164;2022-12-07T02:01:17;2.25;;;0.88;;
75684;SDS011;64298;46.050;38.164;2022-12-07T02:03:43;1.00;;;0.52;;
75684;SDS011;64298;46.050;38.164;2022-12-07T02:06:11;3.30;;;1.17;;
75684;SDS011;64298;46.050;38.164;2022-12-07T02:08:40;3.25;;;2.13;;
75684;SDS011;64298;46.050;38.164;2022-12-07T02:11:07;5.60;;;2.63;;
75684;SDS011;64298;46.050;38.164;2022-12-07T02:13:53;6.63;;;3.47;;
75684;SDS011;64298;46.050;38.164;2022-12-07T02:24:15;1.60;;;0.75;;
75684;SDS011;64298;46.050;38.164;2022-12-07T02:29:35;3.95;;;0.98;;
75684;SDS011;64298;46.050;38.164;2022-12-07T02:32:14;2.95;;;1.02;;
75684;SDS011;64298;46.050;38.164;2022-12-07T02:42:46;1.38;;;0.25;;
75684;SDS011;64298;46.050;38.164;2022-12-07T02:45:17;2.20;;;1.02;;
75684;SDS011;64298;46.050;38.164;2022-12-07T02:47:47;2.58;;;0.68;;
75684;SDS011;64298;46.050;38.164;2022-12-07T02:50:17;3.75;;;0.73;;
75684;SDS011;64298;46.050;38.164;2022-12-07T02:52:45;1.63;;;0.70;;
75684;SDS011;64298;46.050;38.164;2022-12-07T02:55:11;2.65;;;0.95;;
75684;SDS011;64298;46.050;38.164;2022-12-07T03:00:16;3.25;;;1.23;;
75684;SDS011;64298;46.050;38.164;2022-12-07T03:08:30;2.55;;;0.82;;
75684;SDS011;64298;46.050;38.164;2022-12-07T03:11:16;2.90;;;1.02;;
75684;SDS011;64298;46.050;38.164;2022-12-07T03:13:58;3.55;;;1.33;;
75684;SDS011;64298;46.050;38.164;2022-12-07T03:16:41;2.53;;;0.63;;
75684;SDS011;64298;46.050;38.164;2022-12-07T03:19:17;2.60;;;0.93;;
75684;SDS011;64298;46.050;38.164;2022-12-07T03:21:51;6.47;;;1.73;;
75684;SDS011;64298;46.050;38.164;2022-12-07T03:24:23;1.58;;;0.98;;
75684;SDS011;64298;46.050;38.164;2022-12-07T03:27:15;1.95;;;0.85;;
75684;SDS011;64298;46.050;38.164;2022-12-07T03:29:55;2.10;;;0.80;;
75684;SDS011;64298;46.050;38.164;2022-12-07T03:32:34;3.80;;;1.75;;
75684;SDS011;64298;46.050;38.164;2022-12-07T03:35:09;6.35;;;1.60;;
75684;SDS011;64298;46.050;38.164;2022-12-07T03:37:47;3.97;;;1.85;;
75684;SDS011;64298;46.050;38.164;2022-12-07T03:40:30;1.55;;;1.05;;
75684;SDS011;64298;46.050;38.164;2022-12-07T03:43:00;3.83;;;1.63;;
75684;SDS011;64298;46.050;38.164;2022-12-07T03:45:33;2.33;;;0.60;;
75684;SDS011;64298;46.050;38.164;2022-12-07T03:53:39;3.20;;;1.33;;
75684;SDS011;64298;46.050;38.164;2022-12-07T03:56:10;1.15;;;0.93;;
75684;SDS011;64298;46.050;38.164;2022-12-07T03:58:37;0.75;;;0.22;;
75684;SDS011;64298;46.050;38.164;2022-12-07T04:01:23;0.80;;;0.40;;
75684;SDS011;64298;46.050;38.164;2022-12-07T04:03:49;2.50;;;1.00;;
75684;SDS011;64298;46.050;38.164;2022-12-07T04:06:15;2.03;;;0.75;;
75684;SDS011;64298;46.050;38.164;2022-12-07T04:08:41;2.40;;;1.83;;
75684;SDS011;64298;46.050;38.164;2022-12-07T04:11:07;2.28;;;1.02;;
75684;SDS011;64298;46.050;38.164;2022-12-07T04:13:33;1.50;;;0.68;;
75684;SDS011;64298;46.050;38.164;2022-12-07T04:16:19;3.28;;;1.60;;
75684;SDS011;64298;46.050;38.164;2022-12-07T04:18:45;12.48;;;1.63;;
75684;SDS011;64298;46.050;38.164;2022-12-07T04:21:11;1.80;;;0.60;;
75684;SDS011;64298;46.050;38.164;2022-12-07T04:23:37;1.33;;;0.47;;
75684;SDS011;64298;46.050;38.164;2022-12-07T04:26:22;1.95;;;0.98;;
75684;SDS011;64298;46.050;38.164;2022-12-07T04:28:48;3.13;;;1.30;;
75684;SDS011;64298;46.050;38.164;2022-12-07T04:31:14;3.15;;;0.85;;
75684;SDS011;64298;46.050;38.164;2022-12-07T04:33:40;5.68;;;1.58;;
75684;SDS011;64298;46.050;38.164;2022-12-07T04:36:05;4.68;;;1.13;;
75684;SDS011;64298;46.050;38.164;2022-12-07T04:38:32;4.05;;;1.95;;
75684;SDS011;64298;46.050;38.164;2022-12-07T04:40:58;2.20;;;1.00;;
75684;SDS011;64298;46.050;38.164;2022-12-07T04:43:29;3.08;;;1.65;;
75684;SDS011;64298;46.050;38.164;2022-12-07T04:45:55;4.45;;;1.48;;
75684;SDS011;64298;46.050;38.164;2022-12-07T04:48:21;2.55;;;0.75;;
75684;SDS011;64298;46.050;38.164;2022-12-07T04:50:47;3.10;;;1.80;;
75684;SDS011;64298;46.050;38.164;2022-12-07T04:53:15;4.70;;;2.58;;
75684;SDS011;64298;46.050;38.164;2022-12-07T04:55:41;4.78;;;1.48;;
75684;SDS011;64298;46.050;38.164;2022-12-07T04:58:07;3.17;;;1.30;;
75684;SDS011;64298;46.050;38.164;2022-12-07T05:00:32;3.53;;;1.88;;
75684;SDS011;64298;46.050;38.164;2022-12-07T05:02:59;2.13;;;0.98;;
75684;SDS011;64298;46.050;38.164;2022-12-07T05:05:24;2.28;;;0.80;;
75684;SDS011;64298;46.050;38.164;2022-12-07T05:07:50;2.50;;;0.75;;
75684;SDS011;64298;46.050;38.164;2022-12-07T05:10:16;6.10;;;2.03;;
75684;SDS011;64298;46.050;38.164;2022-12-07T05:12:42;3.75;;;1.13;;
75684;SDS011;64298;46.050;38.164;2022-12-07T05:15:08;2.45;;;1.42;;
75684;SDS011;64298;46.050;38.164;2022-12-07T05:17:35;3.67;;;1.25;;
75684;SDS011;64298;46.050;38.164;2022-12-07T05:20:01;2.88;;;1.25;;
75684;SDS011;64298;46.050;38.164;2022-12-07T05:22:27;2.35;;;0.85;;
75684;SDS011;64298;46.050;38.164;2022-12-07T05:24:53;2.83;;;0.93;;
75684;SDS011;64298;46.050;38.164;2022-12-07T05:27:20;5.78;;;2.20;;
75684;SDS011;64298;46.050;38.164;2022-12-07T05:29:46;6.25;;;2.40;;
75684;SDS011;64298;46.050;38.164;2022-12-07T05:32:12;4.65;;;1.65;;
75684;SDS011;64298;46.050;38.164;2022-12-07T05:34:38;2.92;;;1.13;;
75684;SDS011;64298;46.050;38.164;2022-12-07T05:37:04;2.35;;;1.10;;
75684;SDS011;64298;46.050;38.164;2022-12-07T05:39:30;3.50;;;1.67;;
75684;SDS011;64298;46.050;38.164;2022-12-07T05:41:56;3.45;;;1.83;;
75684;SDS011;64298;46.050;38.164;2022-12-07T05:44:40;2.30;;;1.30;;
75684;SDS011;64298;46.050;38.164;2022-12-07T05:47:08;3.50;;;1.50;;
75684;SDS011;64298;46.050;38.164;2022-12-07T05:49:34;3.15;;;1.15;;
75684;SDS011;64298;46.050;38.164;2022-12-07T05:52:00;2.22;;;0.75;;
75684;SDS011;64298;46.050;38.164;2022-12-07T05:54:26;6.28;;;1.30;;
75684;SDS011;64298;46.050;38.164;2022-12-07T05:56:52;2.97;;;1.50;;
75684;SDS011;64298;46.050;38.164;2022-12-07T05:59:18;4.07;;;2.25;;
75684;SDS011;64298;46.050;38.164;2022-12-07T06:01:53;3.70;;;1.30;;
75684;SDS011;64298;46.050;38.164;2022-12-07T06:04:22;1.83;;;0.68;;
75684;SDS011;64298;46.050;38.164;2022-12-07T06:07:07;3.85;;;0.95;;
75684;SDS011;64298;46.050;38.164;2022-12-07T06:09:33;4.53;;;1.95;;
75684;SDS011;64298;46.050;38.164;2022-12-07T06:12:00;4.43;;;1.50;;
75684;SDS011;64298;46.050;38.164;2022-12-07T06:14:44;2.28;;;1.20;;
75684;SDS011;64298;46.050;38.164;2022-12-07T06:17:11;4.40;;;1.77;;
75684;SDS011;64298;46.050;38.164;2022-12-07T06:19:38;4.50;;;1.80;;
75684;SDS011;64298;46.050;38.164;2022-12-07T06:22:04;3.90;;;1.70;;
75684;SDS011;64298;46.050;38.164;2022-12-07T06:24:31;7.60;;;2.45;;
75684;SDS011;64298;46.050;38.164;2022-12-07T06:26:57;8.88;;;2.40;;
75684;SDS011;64298;46.050;38.164;2022-12-07T06:29:23;8.43;;;1.83;;
75684;SDS011;64298;46.050;38.164;2022-12-07T06:31:49;2.40;;;1.17;;
75684;SDS011;64298;46.050;38.164;2022-12-07T06:34:16;4.72;;;2.08;;
75684;SDS011;64298;46.050;38.164;2022-12-07T06:36:44;1.60;;;0.70;;
75684;SDS011;64298;46.050;38.164;2022-12-07T06:39:10;2.55;;;1.55;;
75684;SDS011;64298;46.050;38.164;2022-12-07T06:41:37;2.03;;;0.80;;
75684;SDS011;64298;46.050;38.164;2022-12-07T06:44:04;2.70;;;1.02;;
75684;SDS011;64298;46.050;38.164;2022-12-07T06:46:31;2.50;;;0.68;;
75684;SDS011;64298;46.050;38.164;2022-12-07T06:48:57;3.20;;;1.20;;
75684;SDS011;64298;46.050;38.164;2022-12-07T06:51:23;4.38;;;1.55;;
75684;SDS011;64298;46.050;38.164;2022-12-07T06:53:49;11.57;;;2.28;;
75684;SDS011;64298;46.050;38.164;2022-12-07T06:56:15;5.18;;;1.80;;
75684;SDS011;64298;46.050;38.164;2022-12-07T06:58:41;4.75;;;1.27;;
75684;SDS011;64298;46.050;38.164;2022-12-07T07:01:08;2.75;;;1.05;;
75684;SDS011;64298;46.050;38.164;2022-12-07T07:03:38;5.97;;;1.17;;
75684;SDS011;64298;46.050;38.164;2022-12-07T07:06:05;1.15;;;0.70;;
75684;SDS011;64298;46.050;38.164;2022-12-07T07:08:33;4.85;;;1.23;;
75684;SDS011;64298;46.050;38.164;2022-12-07T07:10:59;8.10;;;3.10;;
75684;SDS011;64298;46.050;38.164;2022-12-07T07:13:26;5.00;;;1.80;;
75684;SDS011;64298;46.050;38.164;2022-12-07T07:15:53;4.38;;;1.70;;
75684;SDS011;64298;46.050;38.164;2022-12-07T07:18:19;4.10;;;0.70;;
75684;SDS011;64298;46.050;38.164;2022-12-07T07:20:45;3.60;;;1.33;;
75684;SDS011;64298;46.050;38.164;2022-12-07T07:23:11;3.28;;;1.13;;
75684;SDS011;64298;46.050;38.164;2022-12-07T07:25:37;3.28;;;1.05;;
75684;SDS011;64298;46.050;38.164;2022-12-07T07:28:04;5.63;;;2.63;;
75684;SDS011;64298;46.050;38.164;2022-12-07T07:30:30;4.00;;;1.40;;
75684;SDS011;64298;46.050;38.164;2022-12-07T07:32:57;4.65;;;1.13;;
75684;SDS011;64298;46.050;38.164;2022-12-07T07:35:24;3.88;;;1.55;;
75684;SDS011;64298;46.050;38.164;2022-12-07T07:37:51;2.53;;;1.20;;
75684;SDS011;64298;46.050;38.164;2022-12-07T07:40:17;5.30;;;1.75;;
75684;SDS011;64298;46.050;38.164;2022-12-07T07:42:43;2.40;;;1.30;;
75684;SDS011;64298;46.050;38.164;2022-12-07T07:45:09;4.45;;;1.77;;
75684;SDS011;64298;46.050;38.164;2022-12-07T07:47:35;5.20;;;1.63;;
75684;SDS011;64298;46.050;38.164;2022-12-07T07:50:01;6.57;;;1.65;;
75684;SDS011;64298;46.050;38.164;2022-12-07T07:52:27;8.85;;;2.38;;
75684;SDS011;64298;46.050;38.164;2022-12-07T07:54:53;4.97;;;1.88;;
75684;SDS011;64298;46.050;38.164;2022-12-07T07:57:19;3.88;;;1.60;;
75684;SDS011;64298;46.050;38.164;2022-12-07T07:59:45;4.22;;;1.98;;
75684;SDS011;64298;46.050;38.164;2022-12-07T08:02:15;3.15;;;1.50;;
75684;SDS011;64298;46.050;38.164;2022-12-07T08:04:42;3.65;;;1.70;;
75684;SDS011;64298;46.050;38.164;2022-12-07T08:07:09;2.75;;;1.08;;
75684;SDS011;64298;46.050;38.164;2022-12-07T08:09:35;3.13;;;1.50;;
75684;SDS011;64298;46.050;38.164;2022-12-07T08:12:01;1.98;;;0.88;;
75684;SDS011;64298;46.050;38.164;2022-12-07T08:14:27;10.07;;;3.85;;
75684;SDS011;64298;46.050;38.164;2022-12-07T08:16:54;16.27;;;8.10;;
75684;SDS011;64298;46.050;38.164;2022-12-07T08:19:20;24.20;;;9.35;;
75684;SDS011;64298;46.050;38.164;2022-12-07T08:21:46;13.07;;;5.65;;
75684;SDS011;64298;46.050;38.164;2022-12-07T08:24:14;9.05;;;4.03;;
75684;SDS011;64298;46.050;38.164;2022-12-07T08:26:40;9.65;;;3.63;;
75684;SDS011;64298;46.050;38.164;2022-12-07T08:29:07;2.35;;;1.10;;
75684;SDS011;64298;46.050;38.164;2022-12-07T08:31:33;3.13;;;1.33;;
75684;SDS011;64298;46.050;38.164;2022-12-07T08:33:59;5.15;;;1.42;;
75684;SDS011;64298;46.050;38.164;2022-12-07T08:36:25;5.82;;;3.05;;
75684;SDS011;64298;46.050;38.164;2022-12-07T08:38:51;4.90;;;1.17;;
75684;SDS011;64298;46.050;38.164;2022-12-07T08:41:17;3.17;;;1.27;;
75684;SDS011;64298;46.050;38.164;2022-12-07T08:43:43;2.33;;;1.15;;
75684;SDS011;64298;46.050;38.164;2022-12-07T08:46:12;2.22;;;0.85;;
75684;SDS011;64298;46.050;38.164;2022-12-07T08:48:52;5.03;;;1.77;;
75684;SDS011;64298;46.050;38.164;2022-12-07T08:51:21;9.02;;;3.30;;
75684;SDS011;64298;46.050;38.164;2022-12-07T08:53:49;4.43;;;1.67;;
75684;SDS011;64298;46.050;38.164;2022-12-07T08:56:16;3.28;;;1.85;;
75684;SDS011;64298;46.050;38.164;2022-12-07T08:58:42;2.28;;;1.02;;
75684;SDS011;64298;46.050;38.164;2022-12-07T09:01:09;6.47;;;2.72;;
75684;SDS011;64298;46.050;38.164;2022-12-07T09:03:35;4.93;;;1.92;;
75684;SDS011;64298;46.050;38.164;2022-12-07T09:06:02;5.20;;;2.35;;
75684;SDS011;64298;46.050;38.164;2022-12-07T09:08:33;4.40;;;1.60;;
75684;SDS011;64298;46.050;38.164;2022-12-07T09:11:05;3.10;;;1.40;;
75684;SDS011;64298;46.050;38.164;2022-12-07T09:13:31;8.77;;;3.03;;
75684;SDS011;64298;46.050;38.164;2022-12-07T09:15:57;5.63;;;2.90;;
75684;SDS011;64298;46.050;38.164;2022-12-07T09:18:23;4.80;;;1.70;;
75684;SDS011;64298;46.050;38.164;2022-12-07T09:21:08;5.70;;;2.70;;
75684;SDS011;64298;46.050;38.164;2022-12-07T09:23:34;3.10;;;1.25;;
75684;SDS011;64298;46.050;38.164;2022-12-07T09:26:01;7.35;;;1.85;;
75684;SDS011;64298;46.050;38.164;2022-12-07T09:28:28;6.00;;;2.50;;
75684;SDS011;64298;46.050;38.164;2022-12-07T09:30:56;4.95;;;2.15;;
75684;SDS011;64298;46.050;38.164;2022-12-07T09:33:22;10.30;;;2.75;;
75684;SDS011;64298;46.050;38.164;2022-12-07T09:35:49;5.45;;;1.60;;
75684;SDS011;64298;46.050;38.164;2022-12-07T09:38:17;3.92;;;1.55;;
75684;SDS011;64298;46.050;38.164;2022-12-07T09:40:43;7.13;;;2.67;;
75684;SDS011;64298;46.050;38.164;2022-12-07T09:43:15;2.78;;;0.85;;
75684;SDS011;64298;46.050;38.164;2022-12-07T09:45:52;2.47;;;1.08;;
75684;SDS011;64298;46.050;38.164;2022-12-07T09:48:21;3.97;;;1.63;;
75684;SDS011;64298;46.050;38.164;2022-12-07T09:50:58;4.40;;;1.92;;
75684;SDS011;64298;46.050;38.164;2022-12-07T09:56:03;16.35;;;3.03;;
75684;SDS011;64298;46.050;38.164;2022-12-07T09:58:30;6.35;;;2.90;;
75684;SDS011;64298;46.050;38.164;2022-12-07T10:00:59;4.25;;;1.88;;
75684;SDS011;64298;46.050;38.164;2022-12-07T10:03:59;6.85;;;2.58;;
75684;SDS011;64298;46.050;38.164;2022-12-07T10:06:43;2.25;;;0.77;;
75684;SDS011;64298;46.050;38.164;2022-12-07T10:09:11;5.75;;;1.50;;
75684;SDS011;64298;46.050;38.164;2022-12-07T10:14:23;9.18;;;2.92;;
75684;SDS011;64298;46.050;38.164;2022-12-07T10:16:52;7.72;;;3.60;;
75684;SDS011;64298;46.050;38.164;2022-12-07T10:24:30;7.30;;;2.95;;
75684;SDS011;64298;46.050;38.164;2022-12-07T10:26:57;10.77;;;2.85;;
75684;SDS011;64298;46.050;38.164;2022-12-07T10:29:33;4.05;;;1.33;;
75684;SDS011;64298;46.050;38.164;2022-12-07T10:32:03;2.83;;;1.13;;
75684;SDS011;64298;46.050;38.164;2022-12-07T10:42:15;4.50;;;1.90;;
75684;SDS011;64298;46.050;38.164;2022-12-07T10:44:49;9.88;;;3.03;;
75684;SDS011;64298;46.050;38.164;2022-12-07T10:47:48;3.85;;;1.55;;
75684;SDS011;64298;46.050;38.164;2022-12-07T10:56:08;6.82;;;2.72;;
75684;SDS011;64298;46.050;38.164;2022-12-07T11:01:45;3.47;;;1.80;;
75684;SDS011;64298;46.050;38.164;2022-12-07T11:04:24;7.43;;;2.70;;
75684;SDS011;64298;46.050;38.164;2022-12-07T11:15:18;8.43;;;2.78;;
75684;SDS011;64298;46.050;38.164;2022-12-07T11:23:26;5.90;;;2.50;;
75684;SDS011;64298;46.050;38.164;2022-12-07T11:31:15;6.45;;;2.10;;
75684;SDS011;64298;46.050;38.164;2022-12-07T11:33:47;20.95;;;4.45;;
75684;SDS011;64298;46.050;38.164;2022-12-07T11:39:06;21.60;;;3.63;;
75684;SDS011;64298;46.050;38.164;2022-12-07T11:41:56;15.48;;;4.55;;
75684;SDS011;64298;46.050;38.164;2022-12-07T11:47:22;7.13;;;2.30;;
75684;SDS011;64298;46.050;38.164;2022-12-07T11:58:56;9.15;;;4.15;;
75684;SDS011;64298;46.050;38.164;2022-12-07T12:01:38;18.20;;;4.25;;
75684;SDS011;64298;46.050;38.164;2022-12-07T12:06:37;12.32;;;3.88;;
75684;SDS011;64298;46.050;38.164;2022-12-07T12:09:06;7.78;;;2.35;;
75684;SDS011;64298;46.050;38.164;2022-12-07T12:19:41;12.18;;;4.00;;
75684;SDS011;64298;46.050;38.164;2022-12-07T12:22:37;13.75;;;5.30;;
75684;SDS011;64298;46.050;38.164;2022-12-07T12:25:09;12.65;;;3.45;;
75684;SDS011;64298;46.050;38.164;2022-12-07T12:27:55;15.30;;;3.83;;
75684;SDS011;64298;46.050;38.164;2022-12-07T12:33:05;13.50;;;3.63;;
75684;SDS011;64298;46.050;38.164;2022-12-07T12:36:17;13.75;;;3.75;;
75684;SDS011;64298;46.050;38.164;2022-12-07T12:38:50;2.10;;;1.17;;
75684;SDS011;64298;46.050;38.164;2022-12-07T12:44:03;10.63;;;3.25;;
75684;SDS011;64298;46.050;38.164;2022-12-07T12:46:58;5.88;;;2.08;;
75684;SDS011;64298;46.050;38.164;2022-12-07T12:50:17;12.23;;;5.60;;
75684;SDS011;64298;46.050;38.164;2022-12-07T12:53:12;13.00;;;3.22;;
75684;SDS011;64298;46.050;38.164;2022-12-07T12:58:37;19.98;;;4.38;;
75684;SDS011;64298;46.050;38.164;2022-12-07T13:07:48;8.88;;;2.75;;
75684;SDS011;64298;46.050;38.164;2022-12-07T13:10:20;11.05;;;3.63;;
75684;SDS011;64298;46.050;38.164;2022-12-07T13:20:50;4.47;;;2.53;;
75684;SDS011;64298;46.050;38.164;2022-12-07T13:23:18;8.63;;;3.92;;
75684;SDS011;64298;46.050;38.164;2022-12-07T13:28:37;6.30;;;3.05;;
75684;SDS011;64298;46.050;38.164;2022-12-07T13:31:11;4.97;;;2.55;;
75684;SDS011;64298;46.050;38.164;2022-12-07T13:33:42;5.20;;;2.78;;
75684;SDS011;64298;46.050;38.164;2022-12-07T13:36:20;8.45;;;3.45;;
75684;SDS011;64298;46.050;38.164;2022-12-07T13:38:55;7.93;;;4.45;;
75684;SDS011;64298;46.050;38.164;2022-12-07T13:41:29;6.88;;;2.38;;
75684;SDS011;64298;46.050;38.164;2022-12-07T13:44:15;8.48;;;3.97;;
75684;SDS011;64298;46.050;38.164;2022-12-07T13:49:46;10.60;;;3.78;;
75684;SDS011;64298;46.050;38.164;2022-12-07T13:55:26;5.85;;;2.20;;
75684;SDS011;64298;46.050;38.164;2022-12-07T13:57:58;7.63;;;3.53;;
75684;SDS011;64298;46.050;38.164;2022-12-07T14:00:26;10.95;;;4.07;;
75684;SDS011;64298;46.050;38.164;2022-12-07T14:05:26;19.17;;;3.67;;
75684;SDS011;64298;46.050;38.164;2022-12-07T14:08:01;14.25;;;4.03;;
75684;SDS011;64298;46.050;38.164;2022-12-07T14:10:35;9.50;;;4.00;;
75684;SDS011;64298;46.050;38.164;2022-12-07T14:13:22;10.07;;;4.68;;
75684;SDS011;64298;46.050;38.164;2022-12-07T14:18:50;13.48;;;4.68;;
75684;SDS011;64298;46.050;38.164;2022-12-07T14:21:17;9.73;;;3.45;;
75684;SDS011;64298;46.050;38.164;2022-12-07T14:24:02;7.80;;;3.40;;
75684;SDS011;64298;46.050;38.164;2022-12-07T14:26:37;10.25;;;3.25;;
75684;SDS011;64298;46.050;38.164;2022-12-07T14:31:50;5.35;;;2.55;;
75684;SDS011;64298;46.050;38.164;2022-12-07T14:34:19;7.40;;;3.80;;
75684;SDS011;64298;46.050;38.164;2022-12-07T14:36:46;10.75;;;4.55;;
75684;SDS011;64298;46.050;38.164;2022-12-07T14:39:13;5.43;;;2.60;;
75684;SDS011;64298;46.050;38.164;2022-12-07T14:41:39;3.50;;;1.70;;
75684;SDS011;64298;46.050;38.164;2022-12-07T14:44:21;9.63;;;4.20;;
75684;SDS011;64298;46.050;38.164;2022-12-07T14:46:49;8.35;;;4.10;;
75684;SDS011;64298;46.050;38.164;2022-12-07T14:49:16;8.27;;;3.88;;
75684;SDS011;64298;46.050;38.164;2022-12-07T14:51:42;5.78;;;2.38;;
75684;SDS011;64298;46.050;38.164;2022-12-07T14:54:15;9.77;;;3.58;;
75684;SDS011;64298;46.050;38.164;2022-12-07T14:56:44;7.97;;;3.38;;
75684;SDS011;64298;46.050;38.164;2022-12-07T14:59:14;5.50;;;2.75;;
75684;SDS011;64298;46.050;38.164;2022-12-07T15:01:41;3.00;;;1.80;;
75684;SDS011;64298;46.050;38.164;2022-12-07T15:04:07;8.57;;;3.90;;
75684;SDS011;64298;46.050;38.164;2022-12-07T15:06:55;10.90;;;3.95;;
75684;SDS011;64298;46.050;38.164;2022-12-07T15:09:25;6.18;;;2.25;;
75684;SDS011;64298;46.050;38.164;2022-12-07T15:11:51;6.20;;;2.90;;
75684;SDS011;64298;46.050;38.164;2022-12-07T15:14:17;5.00;;;2.35;;
75684;SDS011;64298;46.050;38.164;2022-12-07T15:16:43;10.13;;;3.67;;
75684;SDS011;64298;46.050;38.164;2022-12-07T15:19:10;8.45;;;3.30;;
75684;SDS011;64298;46.050;38.164;2022-12-07T15:21:39;6.63;;;3.00;;
75684;SDS011;64298;46.050;38.164;2022-12-07T15:24:05;11.10;;;3.42;;
75684;SDS011;64298;46.050;38.164;2022-12-07T15:26:32;9.48;;;4.60;;
75684;SDS011;64298;46.050;38.164;2022-12-07T15:28:58;4.68;;;1.63;;
75684;SDS011;64298;46.050;38.164;2022-12-07T15:31:23;9.27;;;3.50;;
75684;SDS011;64298;46.050;38.164;2022-12-07T15:33:50;11.15;;;4.63;;
75684;SDS011;64298;46.050;38.164;2022-12-07T15:36:18;7.32;;;2.42;;
75684;SDS011;64298;46.050;38.164;2022-12-07T15:38:47;10.95;;;4.95;;
75684;SDS011;64298;46.050;38.164;2022-12-07T15:41:13;5.15;;;2.10;;
75684;SDS011;64298;46.050;38.164;2022-12-07T15:43:40;8.40;;;4.90;;
75684;SDS011;64298;46.050;38.164;2022-12-07T15:46:29;8.88;;;3.67;;
75684;SDS011;64298;46.050;38.164;2022-12-07T15:48:59;5.60;;;3.42;;
75684;SDS011;64298;46.050;38.164;2022-12-07T15:51:26;8.70;;;3.42;;
75684;SDS011;64298;46.050;38.164;2022-12-07T15:53:52;12.15;;;5.60;;
75684;SDS011;64298;46.050;38.164;2022-12-07T15:56:18;2.03;;;0.82;;
75684;SDS011;64298;46.050;38.164;2022-12-07T15:58:44;11.18;;;4.25;;
75684;SDS011;64298;46.050;38.164;2022-12-07T16:01:14;9.77;;;4.10;;
75684;SDS011;64298;46.050;38.164;2022-12-07T16:03:42;8.60;;;3.50;;
75684;SDS011;64298;46.050;38.164;2022-12-07T16:06:08;4.72;;;2.13;;
75684;SDS011;64298;46.050;38.164;2022-12-07T16:08:34;6.85;;;3.10;;
75684;SDS011;64298;46.050;38.164;2022-12-07T16:11:04;7.18;;;3.40;;
75684;SDS011;64298;46.050;38.164;2022-12-07T16:13:31;12.48;;;4.78;;
75684;SDS011;64298;46.050;38.164;2022-12-07T16:16:02;7.25;;;3.10;;
75684;SDS011;64298;46.050;38.164;2022-12-07T16:18:30;9.38;;;3.72;;
75684;SDS011;64298;46.050;38.164;2022-12-07T16:20:56;7.15;;;3.17;;
75684;SDS011;64298;46.050;38.164;2022-12-07T16:23:22;6.85;;;3.58;;
75684;SDS011;64298;46.050;38.164;2022-12-07T16:25:48;10.15;;;5.13;;
75684;SDS011;64298;46.050;38.164;2022-12-07T16:28:14;7.10;;;2.92;;
75684;SDS011;64298;46.050;38.164;2022-12-07T16:30:40;11.05;;;4.13;;
75684;SDS011;64298;46.050;38.164;2022-12-07T16:33:06;10.00;;;3.88;;
75684;SDS011;64298;46.050;38.164;2022-12-07T16:35:32;12.23;;;4.70;;
75684;SDS011;64298;46.050;38.164;2022-12-07T16:37:59;10.88;;;5.05;;
75684;SDS011;64298;46.050;38.164;2022-12-07T16:40:24;9.73;;;3.45;;
75684;SDS011;64298;46.050;38.164;2022-12-07T16:42:50;8.35;;;4.80;;
75684;SDS011;64298;46.050;38.164;2022-12-07T16:45:17;9.45;;;4.22;;
75684;SDS011;64298;46.050;38.164;2022-12-07T16:47:43;5.45;;;2.65;;
75684;SDS011;64298;46.050;38.164;2022-12-07T16:50:09;7.78;;;2.38;;
75684;SDS011;64298;46.050;38.164;2022-12-07T16:52:36;9.88;;;4.53;;
75684;SDS011;64298;46.050;38.164;2022-12-07T16:55:02;6.97;;;2.60;;
75684;SDS011;64298;46.050;38.164;2022-12-07T16:57:28;9.50;;;3.45;;
75684;SDS011;64298;46.050;38.164;2022-12-07T16:59:56;11.23;;;4.60;;
75684;SDS011;64298;46.050;38.164;2022-12-07T17:02:22;6.78;;;3.20;;
75684;SDS011;64298;46.050;38.164;2022-12-07T17:04:48;12.77;;;5.13;;
75684;SDS011;64298;46.050;38.164;2022-12-07T17:07:14;9.30;;;2.95;;
75684;SDS011;64298;46.050;38.164;2022-12-07T17:09:40;11.18;;;4.82;;
75684;SDS011;64298;46.050;38.164;2022-12-07T17:12:06;5.55;;;2.88;;
75684;SDS011;64298;46.050;38.164;2022-12-07T17:14:32;10.02;;;4.97;;
75684;SDS011;64298;46.050;38.164;2022-12-07T17:17:18;16.30;;;5.28;;
75684;SDS011;64298;46.050;38.164;2022-12-07T17:19:44;7.68;;;3.63;;